Terminal Aerodrome Forecast
Issued by NWS

Home | Current Version | Previous Version | Text Only | Print | Product List | Glossary On
Versions: 1 2 3 4 5 6 7 8 9 10 11 12 13 14 15 16 17 18 19 20 21 22 23 24 25 26 27 28 29 30 31 32
000
FTUS42 KMFL 090521
TAFOPF
TAF
KOPF 090521Z 0906/1006 34006KT P6SM SCT030 OVC090
     FM091600 02012G22KT P6SM VCSH SCT025 BKN060 BKN120=

USA.gov is the U.S. government's official web portal to all federal, state and local government web resources and services.